Information Last Ob Photographs Calibration Meteogram Network Table Neighbors Monthly Summaries Observation History Wind Roses Custom Wind Roses Data Calendar Satellite Cloud Product Download Terminal Aerodome Forecast

19 April 2024 Observation History, [DSM] Des Moines, timezone: America/Chicago

Select Date: Time Order:

Show METARs   Show High Frequency MADIS

Previous Day
Time Wind
(mph)
Vis.
(mi.)
Sky Cond.
(100s ft)
Present Wx Temperature (ºF) Relative
Humidity
Pressure Snow
Depth
(in)
Precipitation (in.)
Air Dwpt Feels Like 6 hour altimeter
(in.)
sea level
(mb)
1 hr 3 hr 6 hr
Max.Min.
12:00 AMNW 1210 CLR
% 30.19
KDSM 190500Z AUTO 31010KT 10SM CLR 06/M01 A3019 RMK T00601010 MADISHF
12:05 AMNW 1010 CLR
% 30.19
KDSM 190505Z AUTO 31009KT 10SM CLR 06/M01 A3019 RMK T00601010 MADISHF
12:10 AMNW 1010 CLR
% 30.2
KDSM 190510Z AUTO 31009KT 10SM CLR 06/M01 A3020 RMK T00601010 MADISHF
12:15 AMNW 1010 CLR
% 30.2
KDSM 190515Z AUTO 31009KT 10SM CLR 06/M01 A3020 RMK T00601010 MADISHF
12:20 AMNW 910 CLR
% 30.2
KDSM 190520Z AUTO 32008KT 10SM CLR 06/M01 A3020 RMK T00601010 MADISHF
12:25 AMNW 810 CLR
% 30.2
KDSM 190525Z AUTO 32007KT 10SM CLR 06/M01 A3020 RMK T00601010 MADISHF
12:30 AMNW 910 CLR
% 30.2
KDSM 190530Z AUTO 31008KT 10SM CLR 06/M01 A3020 RMK T00601010 MADISHF
12:35 AMNW 910 CLR
% 30.2
KDSM 190535Z AUTO 31008KT 10SM CLR 06/M01 A3020 RMK T00601010 MADISHF
12:40 AMWNW 810 CLR
% 30.21
KDSM 190540Z AUTO 30007KT 10SM CLR 05/M01 A3021 RMK T00501010 MADISHF
12:45 AMWNW 810 CLR
% 30.21
KDSM 190545Z AUTO 30007KT 10SM CLR 04/M01 A3021 RMK T00401010 MADISHF
12:54 AMWNW 810 FEW250
403035 53 40 67% 30.211023.60
KDSM 190554Z 30007KT 10SM FEW250 04/M01 A3021 RMK AO2 SLP236 T00441011 10117 20044 401330044 53015
12:55 AMWNW 810 CLR
% 30.21
KDSM 190555Z AUTO 30007KT 10SM CLR 04/M01 A3021 RMK T00401010 MADISHF
1:00 AMWNW 610 CLR
% 30.21
KDSM 190600Z AUTO 29005KT 10SM CLR 04/M01 A3021 RMK T00401010 MADISHF
1:05 AMWNW 610 CLR
% 30.21
KDSM 190605Z AUTO 29005KT 10SM CLR 04/M01 A3021 RMK T00401010 MADISHF
1:10 AMWNW 610 CLR
% 30.22
KDSM 190610Z AUTO 30005KT 10SM CLR 04/M01 A3022 RMK T00401010 MADISHF
1:15 AMWNW 610 CLR
% 30.22
KDSM 190615Z AUTO 29005KT 10SM CLR 04/M01 A3022 RMK T00401010 MADISHF
1:20 AMW 610 CLR
% 30.22
KDSM 190620Z AUTO 28005KT 10SM CLR 04/M01 A3022 RMK T00401010 MADISHF
1:25 AMWNW 610 CLR
% 30.21
KDSM 190625Z AUTO 29005KT 10SM CLR 04/M01 A3021 RMK T00401010 MADISHF
1:30 AMWNW 610 CLR
% 30.21
KDSM 190630Z AUTO 29005KT 10SM CLR 04/M01 A3021 RMK T00401010 MADISHF
1:35 AMW 810 CLR
% 30.21
KDSM 190635Z AUTO 28007KT 10SM CLR 04/M02 A3021 RMK T00401020 MADISHF
1:40 AMWNW 610 CLR
% 30.21
KDSM 190640Z AUTO 29005KT 10SM CLR 03/M02 A3021 RMK T00301020 MADISHF
1:45 AMWNW 810 CLR
% 30.21
KDSM 190645Z AUTO 29007KT 10SM CLR 03/M01 A3021 RMK T00301010 MADISHF
1:50 AMWNW 610 % 30.21
KDSM 190650Z AUTO 29005KT 10SM 03/M02 A3021 RMK T00301020 MADISHF
1:54 AMWNW 710 FEW250
383033 73% 30.211023.40
KDSM 190654Z 29006KT 10SM FEW250 03/M01 A3021 RMK AO2 SLP234 T00331011
1:55 AMWNW 610 CLR
% 30.21
KDSM 190655Z AUTO 30005KT 10SM CLR 03/M01 A3021 RMK T00301010 MADISHF
2:00 AMWNW 610 CLR
% 30.21
KDSM 190700Z AUTO 29005KT 10SM CLR 03/M01 A3021 RMK T00301010 MADISHF
2:05 AMWNW 610 CLR
% 30.21
KDSM 190705Z AUTO 29005KT 10SM CLR 03/M01 A3021 RMK T00301010 MADISHF
2:10 AMWNW 610 CLR
% 30.21
KDSM 190710Z AUTO 29005KT 10SM CLR 03/M01 A3021 RMK T00301010 MADISHF
2:15 AMWNW 610 CLR
% 30.21
KDSM 190715Z AUTO 29005KT 10SM CLR 03/M02 A3021 RMK T00301020 MADISHF
2:20 AMWNW 610 CLR
% 30.21
KDSM 190720Z AUTO 29005KT 10SM CLR 03/M02 A3021 RMK T00301020 MADISHF
2:25 AMWNW 610 CLR
% 30.21
KDSM 190725Z AUTO 29005KT 10SM CLR 03/M02 A3021 RMK T00301020 MADISHF
2:30 AMWNW 610 CLR
% 30.21
KDSM 190730Z AUTO 29005KT 10SM CLR 03/M02 A3021 RMK T00301020 MADISHF
2:35 AMW 510 CLR
% 30.21
KDSM 190735Z AUTO 28004KT 10SM CLR 03/M02 A3021 RMK T00301020 MADISHF
2:40 AMW 510 CLR
% 30.21
KDSM 190740Z AUTO 28004KT 10SM CLR 03/M02 A3021 RMK T00301020 MADISHF
2:45 AMW 510 CLR
% 30.21
KDSM 190745Z AUTO 28004KT 10SM CLR 03/M02 A3021 RMK T00301020 MADISHF
2:50 AMWNW 510 % 30.21
KDSM 190750Z AUTO 29004KT 10SM 03/M02 A3021 RMK T00301020 MADISHF
2:54 AMWNW 610 FEW250
382934 70% 30.211023.30
KDSM 190754Z 29005KT 10SM FEW250 03/M02 A3021 RMK AO2 SLP233 T00331017
2:55 AMWNW 610 CLR
% 30.21
KDSM 190755Z AUTO 29005KT 10SM CLR 03/M02 A3021 RMK T00301020 MADISHF
3:00 AMWNW 510 CLR
% 30.21
KDSM 190800Z AUTO 29004KT 10SM CLR 03/M02 A3021 RMK T00301020 MADISHF
3:05 AMWNW 510 CLR
% 30.2
KDSM 190805Z AUTO 29004KT 10SM CLR 03/M02 A3020 RMK T00301020 MADISHF
3:10 AMWNW 210 CLR
% 30.2
KDSM 190810Z AUTO 29002KT 10SM CLR 03/M02 A3020 RMK T00301020 MADISHF
3:15 AMCalm10 CLR
% 30.2
KDSM 190815Z AUTO 00000KT 10SM CLR 03/M02 A3020 RMK T00301020 MADISHF
3:20 AMCalm10 CLR
% 30.2
KDSM 190820Z AUTO 00000KT 10SM CLR 03/M02 A3020 RMK T00301020 MADISHF
3:25 AMCalm10 CLR
% 30.21
KDSM 190825Z AUTO 00000KT 10SM CLR 03/M02 A3021 RMK T00301020 MADISHF
3:30 AMCalm10 CLR
% 30.21
KDSM 190830Z AUTO 00000KT 10SM CLR 03/M02 A3021 RMK T00301020 MADISHF
3:35 AMW 510 CLR
% 30.21
KDSM 190835Z AUTO 26004KT 10SM CLR 03/M02 A3021 RMK T00301020 MADISHF
3:40 AMWSW 510 CLR
% 30.21
KDSM 190840Z AUTO 25004KT 10SM CLR 03/M02 A3021 RMK T00301020 MADISHF
3:45 AMWSW 510 CLR
% 30.21
KDSM 190845Z AUTO 24004KT 10SM CLR 03/M02 A3021 RMK T00301020 MADISHF
3:50 AMWSW 510 % 30.22
KDSM 190850Z AUTO 24004KT 10SM 02/M02 A3022 RMK T00201020 MADISHF
3:54 AMSW 510 FEW250
372833 70% 30.221023.60
KDSM 190854Z 23004KT 10SM FEW250 03/M02 A3022 RMK AO2 SLP236 T00281022 53001
3:55 AMSW 510 CLR
% 30.22
KDSM 190855Z AUTO 23004KT 10SM CLR 03/M02 A3022 RMK T00301020 MADISHF
4:00 AMSW 510 CLR
% 30.22
KDSM 190900Z AUTO 23004KT 10SM CLR 03/M02 A3022 RMK T00301020 MADISHF
4:05 AMSW 510 CLR
% 30.21
KDSM 190905Z AUTO 23004KT 10SM CLR 03/M02 A3021 RMK T00301020 MADISHF
4:10 AMWSW 510 CLR
% 30.21
KDSM 190910Z AUTO 24004KT 10SM CLR 03/M02 A3021 RMK T00301020 MADISHF
4:15 AMWSW 610 CLR
% 30.21
KDSM 190915Z AUTO 24005KT 10SM CLR 02/M02 A3021 RMK T00201020 MADISHF
4:20 AMSW 610 CLR
% 30.21
KDSM 190920Z AUTO 23005KT 10SM CLR 01/M02 A3021 RMK T00101020 MADISHF
4:25 AMSW 610 CLR
% 30.22
KDSM 190925Z AUTO 23005KT 10SM CLR 01/M02 A3022 RMK T00101020 MADISHF
4:30 AMWSW 510 CLR
% 30.22
KDSM 190930Z AUTO 24004KT 10SM CLR 01/M02 A3022 RMK T00101020 MADISHF
4:35 AMWSW 510 CLR
% 30.22
KDSM 190935Z AUTO 24004KT 10SM CLR 02/M02 A3022 RMK T00201020 MADISHF
4:40 AMSSW 610 CLR
% 30.22
KDSM 190940Z AUTO 21005KT 10SM CLR 02/M02 A3022 RMK T00201020 MADISHF
4:45 AMSSW 510 CLR
% 30.21
KDSM 190945Z AUTO 20004KT 10SM CLR 02/M02 A3021 RMK T00201020 MADISHF
4:50 AMSSW 510 % 30.21
KDSM 190950Z AUTO 21004KT 10SM 02/M02 A3021 RMK T00201020 MADISHF
4:54 AMSW 310 FEW250
362933 75% 30.211023.50
KDSM 190954Z 22003KT 10SM FEW250 02/M02 A3021 RMK AO2 SLP235 T00221017
4:55 AMSW 510 CLR
% 30.21
KDSM 190955Z AUTO 22004KT 10SM CLR 02/M02 A3021 RMK T00201020 MADISHF
5:00 AMSW 510 CLR
% 30.21
KDSM 191000Z AUTO 23004KT 10SM CLR 02/M02 A3021 RMK T00201020 MADISHF
5:05 AMWSW 510 CLR
% 30.21
KDSM 191005Z AUTO 24004KT 10SM CLR 01/M02 A3021 RMK T00101020 MADISHF
5:10 AMWSW 210 CLR
% 30.21
KDSM 191010Z AUTO 24002KT 10SM CLR 01/M02 A3021 RMK T00101020 MADISHF
5:15 AMWSW 510 CLR
% 30.21
KDSM 191015Z AUTO 24004KT 10SM CLR 02/M02 A3021 RMK T00201020 MADISHF
5:20 AMSW 510 CLR
% 30.22
KDSM 191020Z AUTO 22004KT 10SM CLR 02/M02 A3022 RMK T00201020 MADISHF
5:25 AMSW 510 CLR
% 30.22
KDSM 191025Z AUTO 22004KT 10SM CLR 02/M02 A3022 RMK T00201020 MADISHF
5:35 AMSW 510 CLR
% 30.22
KDSM 191035Z AUTO 22004KT 10SM CLR 02/M02 A3022 RMK T00201020 MADISHF
5:40 AMSW 510 CLR
% 30.22
KDSM 191040Z AUTO 23004KT 10SM CLR 02/M02 A3022 RMK T00201020 MADISHF
5:45 AMSW 510 CLR
% 30.22
KDSM 191045Z AUTO 22004KT 10SM CLR 02/M02 A3022 RMK T00201020 MADISHF
5:50 AMSW 510 FEW120
% 30.22
KDSM 191050Z AUTO 22004KT 10SM FEW120 02/M02 A3022 RMK T00201020 MADISHF
5:54 AMSW 510 FEW120
FEW250
352831 75% 30.221023.90
KDSM 191054Z 23004KT 10SM FEW120 FEW250 02/M02 A3022 RMK AO2 SLP239 T00171022
5:55 AMSW 510 CLR
% 30.22
KDSM 191055Z AUTO 23004KT 10SM CLR 02/M02 A3022 RMK T00201020 MADISHF
6:00 AMWSW 510 CLR
% 30.22
KDSM 191100Z AUTO 25004KT 10SM CLR 01/M02 A3022 RMK T00101020 MADISHF
6:05 AMWSW 510 CLR
% 30.22
KDSM 191105Z AUTO 25004KT 10SM CLR 02/M02 A3022 RMK T00201020 MADISHF
6:10 AMWSW 210 CLR
% 30.22
KDSM 191110Z AUTO 24002KT 10SM CLR 01/M02 A3022 RMK T00101020 VRB03KT MADISHF
6:15 AMWSW 210 CLR
% 30.22
KDSM 191115Z AUTO 25002KT 10SM CLR 01/M02 A3022 RMK T00101020 MADISHF
6:20 AMSW 510 CLR
% 30.23
KDSM 191120Z AUTO 23004KT 10SM CLR 01/M02 A3023 RMK T00101020 MADISHF
6:25 AMSW 510 CLR
% 30.23
KDSM 191125Z AUTO 23004KT 10SM CLR 01/M02 A3023 RMK T00101020 MADISHF
6:30 AMSW 210 CLR
% 30.23
KDSM 191130Z AUTO 23002KT 10SM CLR 01/M03 A3023 RMK T00101030 MADISHF
6:35 AMSW 510 CLR
% 30.23
KDSM 191135Z AUTO 23004KT 10SM CLR 01/M02 A3023 RMK T00101020 MADISHF
6:40 AMWSW 210 CLR
% 30.23
KDSM 191140Z AUTO 25002KT 10SM CLR 01/M03 A3023 RMK T00101030 MADISHF
6:45 AMW 210 CLR
% 30.24
KDSM 191145Z AUTO 26002KT 10SM CLR 01/M03 A3024 RMK T00101030 MADISHF
6:50 AMW 210 FEW120
% 30.24
KDSM 191150Z AUTO 27002KT 10SM FEW120 01/M03 A3024 RMK T00101030 MADISHF
6:54 AMW 310 FEW120
342831 40 33 78% 30.241024.30
KDSM 191154Z 28003KT 10SM FEW120 01/M02 A3024 RMK AO2 SLP243 70014 T00111022 10044 20006 53007
6:55 AMW 210 CLR
% 30.24
KDSM 191155Z AUTO 28002KT 10SM CLR 02/M02 A3024 RMK T00201020 MADISHF
7:00 AMW 210 CLR
% 30.24
KDSM 191200Z AUTO 28002KT 10SM CLR 02/M02 A3024 RMK T00201020 MADISHF
7:05 AMCalm10 CLR
% 30.24
KDSM 191205Z AUTO 00000KT 10SM CLR 02/M02 A3024 RMK T00201020 MADISHF
7:10 AMW 210 CLR
% 30.24
KDSM 191210Z AUTO 28002KT 10SM CLR 02/M02 A3024 RMK T00201020 MADISHF
7:15 AMW 210 CLR
% 30.24
KDSM 191215Z AUTO 27002KT 10SM CLR 02/M02 A3024 RMK T00201020 MADISHF
7:20 AMW 510 CLR
% 30.24
KDSM 191220Z AUTO 28004KT 10SM CLR 02/M02 A3024 RMK T00201020 MADISHF
7:25 AMWNW 510 CLR
% 30.24
KDSM 191225Z AUTO 29004KT 10SM CLR 02/M02 A3024 RMK T00201020 MADISHF
7:30 AMW 510 CLR
% 30.24
KDSM 191230Z AUTO 28004KT 10SM CLR 03/M02 A3024 RMK T00301020 MADISHF
7:35 AMW 510 CLR
% 30.24
KDSM 191235Z AUTO 28004KT 10SM CLR 03/M02 A3024 RMK T00301020 MADISHF
7:40 AMWNW 610 CLR
% 30.24
KDSM 191240Z AUTO 29005KT 10SM CLR 03/M02 A3024 RMK T00301020 MADISHF
7:45 AMWNW 510 CLR
% 30.24
KDSM 191245Z AUTO 29004KT 10SM CLR 03/M01 A3024 RMK T00301010 MADISHF
7:50 AMW 510 FEW120
% 30.24
KDSM 191250Z AUTO 28004KT 10SM FEW120 04/M01 A3024 RMK T00401010 MADISHF
7:54 AMW 310 FEW120
FEW200
393137 73% 30.241024.60
KDSM 191254Z 28003KT 10SM FEW120 FEW200 04/M01 A3024 RMK AO2 SLP246 T00391006
7:55 AMW 510 CLR
% 30.24
KDSM 191255Z AUTO 28004KT 10SM CLR 04/M01 A3024 RMK T00401010 MADISHF
8:00 AMW 510 CLR
% 30.24
KDSM 191300Z AUTO 28004KT 10SM CLR 04/M01 A3024 RMK T00401010 MADISHF
8:05 AMW 510 CLR
% 30.25
KDSM 191305Z AUTO 26004KT 10SM CLR 04/M01 A3025 RMK T00401010 MADISHF
8:10 AMWSW 510 CLR
% 30.25
KDSM 191310Z AUTO 25004KT 10SM CLR 04/M01 A3025 RMK T00401010 MADISHF
8:15 AMWSW 610 CLR
% 30.25
KDSM 191315Z AUTO 25005KT 10SM CLR 05/M01 A3025 RMK T00501010 MADISHF
8:20 AMWSW 610 CLR
% 30.25
KDSM 191320Z AUTO 25005KT 10SM CLR 06/M01 A3025 RMK T00601010 MADISHF
8:25 AMWSW 810 CLR
% 30.25
KDSM 191325Z AUTO 25007KT 10SM CLR 06/M01 A3025 RMK T00601010 MADISHF
8:30 AMW 610 CLR
% 30.25
KDSM 191330Z AUTO 26005KT 10SM CLR 06/M01 A3025 RMK T00601010 MADISHF
8:35 AMW 910 CLR
% 30.24
KDSM 191335Z AUTO 27008KT 10SM CLR 06/M01 A3024 RMK T00601010 MADISHF
8:40 AMW 1010 CLR
% 30.25
KDSM 191340Z AUTO 26009KT 10SM CLR 06/M01 A3025 RMK T00601010 MADISHF
8:45 AMW 1010 CLR
% 30.25
KDSM 191345Z AUTO 28009KT 10SM CLR 07/M01 A3025 RMK T00701010 MADISHF
8:50 AMW 910 FEW120
% 30.25
KDSM 191350Z AUTO 28008KT 10SM FEW120 07/M01 A3025 RMK T00701010 FU FEW000 MADISHF
8:54 AMW 910 FEW
FEW120
SCT210
443139 60% 30.241024.50
KDSM 191354Z 27008KT 10SM FEW000 FEW120 SCT210 07/M01 A3024 RMK AO2 SLP245 FU FEW000 T00671006
8:55 AMW 910 CLR
% 30.24
KDSM 191355Z AUTO 27008KT 10SM CLR 07/M01 A3024 RMK T00701010 MADISHF
9:00 AMWNW 810 CLR
% 30.25
KDSM 191400Z AUTO 29007KT 10SM CLR 07/M01 A3025 RMK T00701010 MADISHF
9:05 AMW 1010 CLR
% 30.25
KDSM 191405Z AUTO 27009KT 10SM CLR 07/M01 A3025 RMK T00701010 MADISHF
9:10 AMW 1010 CLR
% 30.25
KDSM 191410Z AUTO 27009KT 10SM CLR 07/M01 A3025 RMK T00701010 MADISHF
9:15 AMW 1010 CLR
% 30.25
KDSM 191415Z AUTO 26009KT 10SM CLR 07/M01 A3025 RMK T00701010 MADISHF
9:20 AMWSW 1010 CLR
% 30.25
KDSM 191420Z AUTO 25009KT 10SM CLR 07/M01 A3025 RMK T00701010 MADISHF
9:25 AMWSW 910 CLR
% 30.25
KDSM 191425Z AUTO 25008KT 10SM CLR 08/M01 A3025 RMK T00801010 MADISHF
9:30 AMWSW 910 CLR
% 30.25
KDSM 191430Z AUTO 24008KT 10SM CLR 08/M01 A3025 RMK T00801010 MADISHF
9:35 AMWSW 1310 CLR
% 30.25
KDSM 191435Z AUTO 24011KT 10SM CLR 08/M01 A3025 RMK T00801010 MADISHF
9:40 AMWSW 12G 1710 CLR
% 30.25
KDSM 191440Z AUTO 25010G15KT 10SM CLR 08/M01 A3025 RMK T00801010 MADISHF
9:45 AMWSW 1210 CLR
% 30.25
KDSM 191445Z AUTO 25010KT 10SM CLR 08/M01 A3025 RMK T00801010 MADISHF
9:50 AMW 1210 FEW120
% 30.25
KDSM 191450Z AUTO 27010KT 10SM FEW120 08/M01 A3025 RMK T00801010 MADISHF
9:54 AMW 1210 FEW120
SCT210
BKN250
473142 54% 30.251024.70
KDSM 191454Z 26010KT 10SM FEW120 SCT210 BKN250 08/M01 A3025 RMK AO2 SLP247 T00831006 51005
9:55 AMW 1010 CLR
% 30.25
KDSM 191455Z AUTO 26009KT 10SM CLR 08/M01 A3025 RMK T00801010 MADISHF
10:00 AMW 1210 CLR
% 30.25
KDSM 191500Z AUTO 26010KT 10SM CLR 09/M01 A3025 RMK T00901010 MADISHF
10:05 AMW 910 CLR
% 30.25
KDSM 191505Z AUTO 26008KT 10SM CLR 09/M01 A3025 RMK T00901010 MADISHF
10:10 AMWSW 1310 CLR
% 30.25
KDSM 191510Z AUTO 24011KT 10SM CLR 09/00 A3025 RMK T00900000 MADISHF
10:15 AMWSW 1210 CLR
% 30.25
KDSM 191515Z AUTO 24010KT 10SM CLR 09/00 A3025 RMK T00900000 MADISHF
10:20 AMWSW 1210 CLR
% 30.25
KDSM 191520Z AUTO 25010KT 10SM CLR 09/M01 A3025 RMK T00901010 MADISHF
10:25 AMWSW 1310 CLR
% 30.25
KDSM 191525Z AUTO 24011KT 10SM CLR 10/M01 A3025 RMK T01001010 MADISHF
10:30 AMW 1310 CLR
% 30.25
KDSM 191530Z AUTO 27011KT 10SM CLR 10/M01 A3025 RMK T01001010 MADISHF
10:35 AMW 1610 CLR
% 30.25
KDSM 191535Z AUTO 26014KT 10SM CLR 10/M01 A3025 RMK T01001010 MADISHF
10:40 AMW 1510 CLR
% 30.25
KDSM 191540Z AUTO 27013KT 10SM CLR 10/M01 A3025 RMK T01001010 MADISHF
10:45 AMWSW 1810 CLR
% 30.25
KDSM 191545Z AUTO 25016KT 10SM CLR 11/M01 A3025 RMK T01101010 MADISHF
10:50 AMWSW 15G 2210 CLR
% 30.25
KDSM 191550Z AUTO 25013G19KT 10SM CLR 10/M01 A3025 RMK T01001010 MADISHF
10:54 AMWNW 1410 FEW045
FEW120
FEW180
BKN210
523252 46% 30.251024.70
KDSM 191554Z 29012KT 10SM FEW045 FEW120 FEW180 BKN210 11/00 A3025 RMK AO2 SLP247 T01110000
10:55 AMW 1510 CLR
% 30.25
KDSM 191555Z AUTO 27013KT 10SM CLR 11/00 A3025 RMK T01100000 MADISHF
11:00 AMW 1310 CLR
% 30.25
KDSM 191600Z AUTO 27011KT 10SM CLR 11/00 A3025 RMK T01100000 MADISHF
11:05 AMW 16G 2210 CLR
% 30.25
KDSM 191605Z AUTO 26014G19KT 10SM CLR 12/M01 A3025 RMK T01201010 MADISHF
11:05 AMW 16G 2210 CLR
% 30.25
KDSM 191605Z AUTO 26014G19KT 10SM CLR A3025 RMK MADISHF
11:10 AMWSW 1810 FEW049
% 30.25
KDSM 191610Z AUTO 25016KT 10SM FEW049 11/M01 A3025 RMK T01101010 MADISHF
11:15 AMM10 FEW049
% 30.25
KDSM 191615Z AUTO /////KT 10SM FEW049 12/00 A3025 RMK T01200000 MADISHF
11:20 AMW 1310 FEW050
% 30.25
KDSM 191620Z AUTO 27011KT 10SM FEW050 11/00 A3025 RMK T01100000 MADISHF
11:25 AMWNW 1810 FEW050
% 30.25
KDSM 191625Z AUTO 30016KT 10SM FEW050 11/M01 A3025 RMK T01101010 MADISHF
11:30 AMWNW 1710 FEW050
% 30.25
KDSM 191630Z AUTO 29015KT 10SM FEW050 11/M02 A3025 RMK T01101020 MADISHF
11:35 AMW 1610 FEW050
% 30.25
KDSM 191635Z AUTO 28014KT 10SM FEW050 11/M02 A3025 RMK T01101020 MADISHF
11:40 AMW 1810 CLR
% 30.25
KDSM 191640Z AUTO 28016KT 10SM CLR 11/M01 A3025 RMK T01101010 MADISHF
11:40 AMM10 CLR
% 30.25
KDSM 191640Z AUTO /////KT 10SM CLR 11/M01 A3025 RMK T01101010 MADISHF
11:45 AMW 1310 CLR
% 30.25
KDSM 191645Z AUTO 28011KT 10SM CLR 11/M01 A3025 RMK T01101010 MADISHF
11:50 AMW 2310 FEW050
FEW120
% 30.25
KDSM 191650Z AUTO 28020KT 10SM FEW050 FEW120 12/M02 A3025 RMK T01201020 MADISHF
11:50 AMM10 FEW050
FEW120
% 30.25
KDSM 191650Z AUTO ///20KT 10SM FEW050 FEW120 12/M02 A3025 RMK T01201020 MADISHF
11:54 AMWNW 18G 3010 FEW050
FEW120
FEW180
BKN210
522652 36% 30.251024.70
KDSM 191654Z 29016G26KT 10SM FEW050 FEW120 FEW180 BKN210 11/M03 A3025 RMK AO2 PK WND 27036/1614 SLP247 T01111033
11:55 AMM10 CLR
% 30.25
KDSM 191655Z AUTO /////G22KT 10SM CLR 11/M03 A3025 RMK T01101030 MADISHF
12:00 PMM10 CLR
% 30.25
KDSM 191700Z AUTO /////G22KT 10SM CLR 11/M03 A3025 RMK T01101030 MADISHF
12:05 PMM10 CLR
% 30.25
KDSM 191705Z AUTO /////G23KT 10SM CLR 11/M03 A3025 RMK T01101030 MADISHF
12:10 PMWNW 1810 CLR
% 30.25
KDSM 191710Z AUTO 30016KT 10SM CLR 11/M03 A3025 RMK T01101030 MADISHF
12:15 PMWNW 15G 2510 CLR
% 30.24
KDSM 191715Z AUTO 29013G22KT 10SM CLR 12/M02 A3024 RMK T01201020 MADISHF
12:20 PMNW 22G 2610 CLR
% 30.24
KDSM 191720Z AUTO 31019G23KT 10SM CLR 13/M01 A3024 RMK T01301010 MADISHF
12:20 PMM10 CLR
% 30.24
KDSM 191720Z AUTO /////G23KT 10SM CLR 13/M01 A3024 RMK T01301010 MADISHF
12:25 PMWNW 1510 CLR
% 30.24
KDSM 191725Z AUTO 30013KT 10SM CLR 12/M01 A3024 RMK T01201010 MADISHF
12:30 PMWNW 1510 CLR
% 30.24
KDSM 191730Z AUTO 29013KT 10SM CLR 13/M01 A3024 RMK T01301010 MADISHF
12:35 PMNW 1710 CLR
% 30.24
KDSM 191735Z AUTO 31015KT 10SM CLR 13/M01 A3024 RMK T01301010 MADISHF
12:40 PMW 1610 CLR
% 30.24
KDSM 191740Z AUTO 28014KT 10SM CLR 12/M01 A3024 RMK T01201010 MADISHF
12:45 PMWNW 15G 2210 CLR
% 30.24
KDSM 191745Z AUTO 29013G19KT 10SM CLR 13/M01 A3024 RMK T01301010 MADISHF
12:50 PMWNW 1310 CLR
% 30.23
KDSM 191750Z AUTO 30011KT 10SM CLR 13/M01 A3023 RMK T01301010 MADISHF
12:54 PMWNW 18G 2810 FEW050
FEW120
SCT200
553255 55 35 41% 30.231024.20
KDSM 191754Z 29016G24KT 10SM FEW050 FEW120 SCT200 13/00 A3023 RMK AO2 SLP242 T01280000 10128 20017 58005
12:55 PMM10 CLR
% 30.24
KDSM 191755Z AUTO ///14G19KT 10SM CLR 13/00 A3024 RMK T01300000 MADISHF
1:00 PMWNW 2010 CLR
% 30.24
KDSM 191800Z AUTO 30017KT 10SM CLR 13/M01 A3024 RMK T01301010 MADISHF
1:05 PMNW 1510 CLR
% 30.23
KDSM 191805Z AUTO 31013KT 10SM CLR 13/M01 A3023 RMK T01301010 MADISHF
1:10 PMW 15G 2210 FEW055
% 30.23
KDSM 191810Z AUTO 27013G19KT 10SM FEW055 13/00 A3023 RMK T01300000 MADISHF
1:15 PMWNW 1310 CLR
% 30.23
KDSM 191815Z AUTO 29011KT 10SM CLR 13/M01 A3023 RMK T01301010 MADISHF
1:20 PMWNW 21G 2510 CLR
% 30.23
KDSM 191820Z AUTO 29018G22KT 10SM CLR 13/M01 A3023 RMK T01301010 MADISHF
1:20 PMM10 CLR
% 30.23
KDSM 191820Z AUTO /////G22KT 10SM CLR 13/M01 A3023 RMK T01301010 MADISHF
1:25 PMNW 23G 3710 CLR
% 30.23
KDSM 191825Z AUTO 31020G32KT 10SM CLR 13/M01 A3023 RMK T01301010 MADISHF
1:25 PMM10 CLR
% 30.23
KDSM 191825Z AUTO /////G32KT 10SM CLR 13/M01 A3023 RMK T01301010 MADISHF
1:30 PMWNW 2010 CLR
% 30.22
KDSM 191830Z AUTO 30017KT 10SM CLR 13/M02 A3022 RMK T01301020 MADISHF
1:35 PMW 17G 2510 CLR
% 30.22
KDSM 191835Z AUTO 28015G22KT 10SM CLR 13/M02 A3022 RMK T01301020 MADISHF
1:40 PMNW 2010 CLR
% 30.22
KDSM 191840Z AUTO 31017KT 10SM CLR 13/M02 A3022 RMK T01301020 MADISHF
1:45 PMWNW 1710 CLR
% 30.22
KDSM 191845Z AUTO 29015KT 10SM CLR 13/M02 A3022 RMK T01301020 MADISHF
1:50 PMWNW 1810 CLR
% 30.22
KDSM 191850Z AUTO 29016KT 10SM CLR 12/M02 A3022 RMK T01201020 MADISHF
1:54 PMW 17G 2810 FEW055
FEW120
FEW200
562856 34% 30.221023.70
KDSM 191854Z 28015G24KT 10SM FEW055 FEW120 FEW200 13/M02 A3022 RMK AO2 PK WND 31033/1825 SLP237 T01331022
1:55 PMW 1810 CLR
% 30.22
KDSM 191855Z AUTO 28016KT 10SM CLR 13/M02 A3022 RMK T01301020 MADISHF
2:00 PMM10 CLR
% 30.22
KDSM 191900Z AUTO /////KT 10SM CLR 13/M02 A3022 RMK T01301020 MADISHF
2:05 PMW 15G 2210 CLR
% 30.21
KDSM 191905Z AUTO 27013G19KT 10SM CLR 13/M02 A3021 RMK T01301020 MADISHF
2:10 PMWNW 2110 CLR
% 30.22
KDSM 191910Z AUTO 29018KT 10SM CLR 13/M02 A3022 RMK T01301020 MADISHF
2:10 PMM10 CLR
% 30.22
KDSM 191910Z AUTO /////KT 10SM CLR 13/M02 A3022 RMK T01301020 MADISHF
2:15 PMWNW 13G 2210 CLR
% 30.21
KDSM 191915Z AUTO 30011G19KT 10SM CLR 13/M02 A3021 RMK T01301020 WND 26V33 MADISHF
2:20 PMW 1510 CLR
% 30.21
KDSM 191920Z AUTO 28013KT 10SM CLR 14/M03 A3021 RMK T01401030 MADISHF
2:30 PMWNW 2010 CLR
% 30.21
KDSM 191930Z AUTO 29017KT 10SM CLR 14/M03 A3021 RMK T01401030 MADISHF
2:35 PMWNW 2110 FEW120
% 30.21
KDSM 191935Z AUTO 30018KT 10SM FEW120 14/M02 A3021 RMK T01401020 MADISHF
2:40 PMWNW 1610 FEW120
% 30.21
KDSM 191940Z AUTO 29014KT 10SM FEW120 14/M02 A3021 RMK T01401020 MADISHF
2:45 PMM10 FEW070
FEW120
% 30.21
KDSM 191945Z AUTO /////G31KT 10SM FEW070 FEW120 13/M03 A3021 RMK T01301030 MADISHF
2:50 PMWNW 24G 3010 FEW070
FEW120
% 30.21
KDSM 191950Z AUTO 30021G26KT 10SM FEW070 FEW120 14/M04 A3021 RMK T01401040 MADISHF
2:54 PMNW 25G 3710 FEW070
FEW120
FEW210
582558 28% 30.211023.50
KDSM 191954Z 32022G32KT 10SM FEW070 FEW120 FEW210 14/M04 A3021 RMK AO2 PK WND 31032/1946 SLP235 T01441039
3:00 PMWNW 17G 2510 FEW120
% 30.21
KDSM 192000Z AUTO 30015G22KT 10SM FEW120 14/M03 A3021 RMK T01401030 MADISHF
3:05 PMM10 CLR
% 30.21
KDSM 192005Z AUTO /////G30KT 10SM CLR 14/M03 A3021 RMK T01401030 MADISHF
3:10 PMWNW 2110 CLR
% 30.21
KDSM 192010Z AUTO 29018KT 10SM CLR 14/M04 A3021 RMK T01401040 MADISHF
3:15 PMM10 CLR
% 30.21
KDSM 192015Z AUTO /////KT 10SM CLR 14/M04 A3021 RMK T01401040 MADISHF
3:20 PMWNW 21G 2610 CLR
% 30.2
KDSM 192020Z AUTO 30018G23KT 10SM CLR 14/M03 A3020 RMK T01401030 MADISHF
3:25 PMWNW 21G 2510 CLR
% 30.2
KDSM 192025Z AUTO 29018G22KT 10SM CLR 14/M04 A3020 RMK T01401040 MADISHF
3:25 PMM10 CLR
% 30.2
KDSM 192025Z AUTO /////G22KT 10SM CLR 14/M04 A3020 RMK T01401040 MADISHF
3:30 PMWNW 25G 3410 CLR
% 30.2
KDSM 192030Z AUTO 30022G30KT 10SM CLR 14/M04 A3020 RMK T01401040 MADISHF
3:30 PMM10 CLR
% 30.2
KDSM 192030Z AUTO /////G30KT 10SM CLR 14/M04 A3020 RMK T01401040 MADISHF
3:35 PMM10 CLR
% 30.21
KDSM 192035Z AUTO /////G26KT 10SM CLR 14/M04 A3021 RMK T01401040 MADISHF
3:40 PMW 22G 3110 CLR
% 30.2
KDSM 192040Z AUTO 26019G27KT 10SM CLR 14/M04 A3020 RMK T01401040 MADISHF
3:45 PMM10 CLR
% 30.2
KDSM 192045Z AUTO /////KT 10SM CLR 14/M04 A3020 RMK T01401040 MADISHF
3:50 PMW 23G 3010 FEW070
% 30.2
KDSM 192050Z AUTO 28020G26KT 10SM FEW070 13/M04 A3020 RMK T01301040 MADISHF
3:54 PMWNW 23G 3310 FEW070
BKN130
572457 28% 30.21022.90
KDSM 192054Z 29020G29KT 10SM FEW070 BKN130 14/M04 A3020 RMK AO2 PK WND 29030/2042 SLP229 T01391044 57012

The IEM API webservice that provided data to this page. For more details, see documentation.

Data Notes

  • For recent years, this page also optionally shows observations from the MADIS High Frequency METAR dataset. This dataset had a problem with temperatures detailed here.